createdAt,value
2017-11-04T00:00:37.163Z,13.7
2017-11-04T00:01:40.651Z,13.7
2017-11-04T00:02:43.070Z,13.7
2017-11-04T00:03:45.503Z,13.6
2017-11-04T00:04:47.926Z,13.6
2017-11-04T00:05:50.353Z,13.6
2017-11-04T00:06:52.785Z,13.6
2017-11-04T00:07:55.206Z,13.6
2017-11-04T00:08:57.636Z,13.6
2017-11-04T00:10:00.072Z,13.6
2017-11-04T00:11:02.501Z,13.6
2017-11-04T00:12:04.928Z,13.6
2017-11-04T00:13:07.356Z,13.6
2017-11-04T00:14:09.782Z,13.5
2017-11-04T00:15:12.206Z,13.5
2017-11-04T00:16:14.632Z,13.5
2017-11-04T00:17:17.050Z,13.5
2017-11-04T00:18:19.478Z,13.5
2017-11-04T00:19:22.256Z,13.5
2017-11-04T00:20:25.057Z,13.5
2017-11-04T00:21:27.828Z,13.5
2017-11-04T00:22:30.253Z,13.5
2017-11-04T00:23:32.674Z,13.5
2017-11-04T00:24:35.107Z,13.5
2017-11-04T00:25:37.523Z,13.5
2017-11-04T00:26:39.952Z,13.5
2017-11-04T00:27:42.378Z,13.6
2017-11-04T00:28:44.810Z,13.5
2017-11-04T00:29:47.236Z,13.6
2017-11-04T00:30:49.662Z,13.6
2017-11-04T00:31:52.099Z,13.6
2017-11-04T00:32:54.509Z,13.5
2017-11-04T00:33:56.938Z,13.6
2017-11-04T00:34:59.366Z,13.6
2017-11-04T00:36:01.785Z,13.6
2017-11-04T00:37:04.207Z,13.6
2017-11-04T00:38:06.643Z,13.6
2017-11-04T00:39:09.067Z,13.6
2017-11-04T00:40:11.856Z,13.6
2017-11-04T00:41:14.285Z,13.6
2017-11-04T00:42:16.700Z,13.6
2017-11-04T00:43:19.127Z,13.6
2017-11-04T00:44:21.557Z,13.6
2017-11-04T00:45:23.973Z,13.5
2017-11-04T00:46:26.396Z,13.5
2017-11-04T00:47:28.815Z,13.5
2017-11-04T00:48:31.615Z,13.5
2017-11-04T00:49:34.056Z,13.5
2017-11-04T00:50:36.838Z,13.5
2017-11-04T00:51:39.258Z,13.5
2017-11-04T00:52:41.686Z,13.5
2017-11-04T00:53:44.105Z,13.5
2017-11-04T00:54:46.533Z,13.5
2017-11-04T00:55:48.960Z,13.6
2017-11-04T00:56:51.381Z,13.6
2017-11-04T00:57:53.830Z,13.6
2017-11-04T00:58:56.244Z,13.6
2017-11-04T00:59:58.674Z,13.6
2017-11-04T01:01:01.102Z,13.6
2017-11-04T01:02:03.528Z,13.6
2017-11-04T01:03:05.953Z,13.6
2017-11-04T01:04:08.379Z,13.5
2017-11-04T01:05:10.801Z,13.6
2017-11-04T01:06:13.242Z,13.6
2017-11-04T01:07:15.670Z,13.6
2017-11-04T01:08:18.092Z,13.6
2017-11-04T01:09:20.531Z,13.6
2017-11-04T01:10:23.300Z,13.6
2017-11-04T01:11:25.722Z,13.6
2017-11-04T01:12:28.145Z,13.6
2017-11-04T01:13:30.913Z,13.6
2017-11-04T01:14:33.357Z,13.6
2017-11-04T01:15:35.775Z,13.6
2017-11-04T01:16:38.190Z,13.7
2017-11-04T01:17:40.613Z,13.7
2017-11-04T01:18:43.038Z,13.6
2017-11-04T01:19:45.814Z,13.7
2017-11-04T01:20:48.251Z,13.7
2017-11-04T01:21:50.687Z,13.7
2017-11-04T01:22:53.105Z,13.7
2017-11-04T01:23:55.539Z,13.7
2017-11-04T01:24:57.970Z,13.7
2017-11-04T01:26:00.396Z,13.7
2017-11-04T01:27:02.831Z,13.7
2017-11-04T01:28:05.254Z,13.6
2017-11-04T01:29:07.681Z,13.7
2017-11-04T01:30:10.114Z,13.7
2017-11-04T01:31:12.538Z,13.6
2017-11-04T01:32:14.961Z,13.6
2017-11-04T01:33:17.378Z,13.6
2017-11-04T01:34:19.824Z,13.6
2017-11-04T01:35:22.244Z,13.6
2017-11-04T01:36:24.668Z,13.7
2017-11-04T01:37:27.092Z,13.6
2017-11-04T01:38:29.510Z,13.6
2017-11-04T01:39:31.934Z,13.6
2017-11-04T01:40:34.363Z,13.7
2017-11-04T01:41:36.772Z,13.6
2017-11-04T01:42:39.191Z,13.6
2017-11-04T01:43:41.624Z,13.7
2017-11-04T01:44:44.058Z,13.7
2017-11-04T01:45:46.479Z,13.6
2017-11-04T01:46:48.900Z,13.6
2017-11-04T01:47:51.321Z,13.6
2017-11-04T01:48:53.779Z,13.6
2017-11-04T01:49:56.198Z,13.6
2017-11-04T01:50:58.626Z,13.6
2017-11-04T01:52:01.050Z,13.6
2017-11-04T01:53:03.468Z,13.6
2017-11-04T01:54:05.898Z,13.6
2017-11-04T01:55:08.677Z,13.6
2017-11-04T01:56:11.094Z,13.6
2017-11-04T01:57:13.518Z,13.6
2017-11-04T01:58:15.946Z,13.6
2017-11-04T01:59:18.375Z,13.7
2017-11-04T02:00:20.799Z,13.7
2017-11-04T02:01:23.228Z,13.7
2017-11-04T02:02:25.652Z,13.7
2017-11-04T02:03:28.084Z,13.7
2017-11-04T02:04:30.511Z,13.7
2017-11-04T02:05:33.293Z,13.7
2017-11-04T02:06:35.715Z,13.7
2017-11-04T02:07:38.152Z,13.6
2017-11-04T02:08:40.595Z,13.7
2017-11-04T02:09:43.000Z,13.7
2017-11-04T02:10:45.427Z,13.7
2017-11-04T02:11:47.868Z,13.7
2017-11-04T02:12:50.312Z,13.6
2017-11-04T02:13:52.756Z,13.7
2017-11-04T02:14:55.549Z,13.6
2017-11-04T02:15:57.982Z,13.6
2017-11-04T02:17:00.403Z,13.6
2017-11-04T02:18:02.848Z,13.6
2017-11-04T02:19:05.268Z,13.6
2017-11-04T02:20:07.701Z,13.6
2017-11-04T02:21:10.124Z,13.5
2017-11-04T02:22:12.562Z,13.5
2017-11-04T02:23:14.987Z,13.5
2017-11-04T02:24:17.411Z,13.5
2017-11-04T02:25:19.838Z,13.4
2017-11-04T02:26:22.272Z,13.5
2017-11-04T02:27:24.712Z,13.4
2017-11-04T02:28:27.484Z,13.4
2017-11-04T02:29:29.899Z,13.4
2017-11-04T02:30:32.674Z,13.4
2017-11-04T02:31:35.114Z,13.4
2017-11-04T02:32:37.536Z,13.4
2017-11-04T02:33:39.951Z,13.4
2017-11-04T02:34:42.366Z,13.4
2017-11-04T02:35:44.787Z,13.4
2017-11-04T02:36:47.209Z,13.4
2017-11-04T02:37:50.356Z,13.4
2017-11-04T02:38:52.771Z,13.4
2017-11-04T02:39:55.199Z,13.4
2017-11-04T02:40:57.636Z,13.3
2017-11-04T02:42:00.063Z,13.3
2017-11-04T02:43:02.854Z,13.3
2017-11-04T02:44:05.284Z,13.2
2017-11-04T02:45:07.707Z,13.2
2017-11-04T02:46:10.138Z,13.2
2017-11-04T02:47:12.565Z,13.1
2017-11-04T02:48:14.994Z,13.1
2017-11-04T02:49:17.426Z,13.1
2017-11-04T02:50:19.855Z,13
2017-11-04T02:51:22.650Z,13
2017-11-04T02:52:25.084Z,13
2017-11-04T02:53:27.494Z,13
2017-11-04T02:54:29.919Z,13
2017-11-04T02:55:32.352Z,12.9
2017-11-04T02:56:34.778Z,12.9
2017-11-04T02:57:37.199Z,12.9
2017-11-04T02:58:39.623Z,12.8
2017-11-04T02:59:42.051Z,12.8
2017-11-04T03:00:44.480Z,12.8
2017-11-04T03:01:47.290Z,12.8
2017-11-04T03:02:49.753Z,12.7
2017-11-04T03:03:52.176Z,12.7
2017-11-04T03:04:54.586Z,12.7
2017-11-04T03:05:57.010Z,12.7
2017-11-04T03:06:59.444Z,12.7
2017-11-04T03:08:01.872Z,12.6
2017-11-04T03:09:04.298Z,12.6
2017-11-04T03:10:07.112Z,12.5
2017-11-04T03:11:09.544Z,12.5
2017-11-04T03:12:12.337Z,12.5
2017-11-04T03:13:14.759Z,12.5
2017-11-04T03:14:17.528Z,12.4
2017-11-04T03:15:19.954Z,12.4
2017-11-04T03:16:22.374Z,12.4
2017-11-04T03:17:24.817Z,12.4
2017-11-04T03:18:27.589Z,12.3
2017-11-04T03:19:30.003Z,12.3
2017-11-04T03:20:32.430Z,12.3
2017-11-04T03:21:34.855Z,12.3
2017-11-04T03:22:37.277Z,12.3
2017-11-04T03:23:39.697Z,12.3
2017-11-04T03:24:42.110Z,12.2
2017-11-04T03:25:44.539Z,12.2
2017-11-04T03:26:46.973Z,12.2
2017-11-04T03:27:49.395Z,12.2
2017-11-04T03:28:51.812Z,12.2
2017-11-04T03:29:54.226Z,12.2
2017-11-04T03:30:57.005Z,12.1
2017-11-04T03:31:59.425Z,12.1
2017-11-04T03:33:02.582Z,12.1
2017-11-04T03:34:05.006Z,12.1
2017-11-04T03:35:07.429Z,12.1
2017-11-04T03:36:10.191Z,12.1
2017-11-04T03:37:12.674Z,12
2017-11-04T03:38:15.050Z,12.1
2017-11-04T03:39:17.479Z,12
2017-11-04T03:40:19.906Z,12
2017-11-04T03:41:22.328Z,12
2017-11-04T03:42:24.753Z,12
2017-11-04T03:43:27.537Z,12
2017-11-04T03:44:30.303Z,12
2017-11-04T03:45:32.735Z,12
2017-11-04T03:46:35.150Z,12
2017-11-04T03:47:37.571Z,12
2017-11-04T03:48:39.995Z,11.9
2017-11-04T03:49:42.438Z,11.9
2017-11-04T03:50:44.838Z,11.9
2017-11-04T03:51:47.269Z,11.9
2017-11-04T03:52:49.691Z,11.9
2017-11-04T03:53:52.123Z,11.9
2017-11-04T03:54:54.550Z,11.9
2017-11-04T03:55:56.976Z,11.9
2017-11-04T03:56:59.409Z,11.9
2017-11-04T03:58:01.832Z,11.9
2017-11-04T03:59:04.249Z,11.9
2017-11-04T04:00:06.694Z,11.9
2017-11-04T04:01:09.119Z,11.9
2017-11-04T04:02:11.533Z,11.8
2017-11-04T04:03:13.963Z,11.8
2017-11-04T04:04:16.403Z,11.8
2017-11-04T04:05:18.816Z,11.8
2017-11-04T04:06:21.243Z,11.8
2017-11-04T04:07:23.659Z,11.8
2017-11-04T04:08:26.080Z,11.8
2017-11-04T04:09:28.519Z,11.8
2017-11-04T04:10:30.937Z,11.8
2017-11-04T04:11:33.357Z,11.7
2017-11-04T04:12:35.781Z,11.8
2017-11-04T04:13:38.197Z,11.8
2017-11-04T04:14:40.973Z,11.7
2017-11-04T04:15:43.398Z,11.7
2017-11-04T04:16:45.825Z,11.7
2017-11-04T04:17:48.277Z,11.7
2017-11-04T04:18:50.701Z,11.7
2017-11-04T04:19:53.125Z,11.7
2017-11-04T04:20:55.541Z,11.7
2017-11-04T04:21:58.319Z,11.7
2017-11-04T04:23:00.741Z,11.7
2017-11-04T04:24:03.161Z,11.7
2017-11-04T04:25:05.582Z,11.7
2017-11-04T04:26:08.007Z,11.7
2017-11-04T04:27:10.429Z,11.6
2017-11-04T04:28:12.861Z,11.6
2017-11-04T04:29:15.280Z,11.6
2017-11-04T04:30:17.727Z,11.6
2017-11-04T04:31:20.126Z,11.5
2017-11-04T04:32:22.547Z,11.5
2017-11-04T04:33:24.971Z,11.5
2017-11-04T04:34:27.400Z,11.5
2017-11-04T04:35:29.824Z,11.5
2017-11-04T04:36:32.258Z,11.5
2017-11-04T04:37:34.675Z,11.5
2017-11-04T04:38:37.100Z,11.5
2017-11-04T04:39:39.522Z,11.4
2017-11-04T04:40:42.305Z,11.4
2017-11-04T04:41:44.724Z,11.4
2017-11-04T04:42:47.162Z,11.4
2017-11-04T04:43:49.582Z,11.4
2017-11-04T04:44:52.351Z,11.4
2017-11-04T04:45:54.773Z,11.4
2017-11-04T04:46:57.199Z,11.4
2017-11-04T04:47:59.628Z,11.4
2017-11-04T04:49:02.050Z,11.4
2017-11-04T04:50:04.497Z,11.3
2017-11-04T04:51:06.910Z,11.3
2017-11-04T04:52:09.724Z,11.3
2017-11-04T04:53:12.147Z,11.3
2017-11-04T04:54:14.560Z,11.3
2017-11-04T04:55:17.341Z,11.3
2017-11-04T04:56:19.762Z,11.3
2017-11-04T04:57:22.185Z,11.3
2017-11-04T04:58:24.608Z,11.3
2017-11-04T04:59:27.029Z,11.2
2017-11-04T05:00:29.463Z,11.2
2017-11-04T05:01:31.880Z,11.2
2017-11-04T05:02:34.303Z,11.2
2017-11-04T05:03:36.733Z,11.2
2017-11-04T05:04:39.511Z,11.2
2017-11-04T05:05:41.943Z,11.2
2017-11-04T05:06:44.356Z,11.2
2017-11-04T05:07:46.773Z,11.2
2017-11-04T05:08:49.206Z,11.2
2017-11-04T05:09:51.630Z,11.2
2017-11-04T05:10:54.054Z,11.2
2017-11-04T05:11:56.477Z,11.2
2017-11-04T05:12:58.901Z,11.2
2017-11-04T05:14:01.322Z,11.2
2017-11-04T05:15:03.747Z,11.2
2017-11-04T05:16:06.161Z,11.1
2017-11-04T05:17:08.578Z,11.1
2017-11-04T05:18:11.015Z,11.1
2017-11-04T05:19:13.438Z,11.2
2017-11-04T05:20:15.856Z,11.1
2017-11-04T05:21:18.274Z,11.1
2017-11-04T05:22:20.698Z,11.1
2017-11-04T05:23:23.478Z,11.1
2017-11-04T05:24:25.917Z,11.1
2017-11-04T05:25:28.342Z,11.1
2017-11-04T05:26:30.766Z,11.1
2017-11-04T05:27:33.207Z,11.1
2017-11-04T05:28:35.632Z,11.1
2017-11-04T05:29:38.057Z,11
2017-11-04T05:30:40.488Z,11
2017-11-04T05:31:42.917Z,11
2017-11-04T05:32:45.335Z,11
2017-11-04T05:33:47.755Z,11
2017-11-04T05:34:50.190Z,11
2017-11-04T05:35:52.613Z,11
2017-11-04T05:36:55.029Z,11
2017-11-04T05:37:57.458Z,10.9
2017-11-04T05:38:59.882Z,11
2017-11-04T05:40:02.325Z,10.9
2017-11-04T05:41:04.745Z,10.9
2017-11-04T05:42:07.153Z,10.9
2017-11-04T05:43:09.587Z,10.9
2017-11-04T05:44:12.382Z,10.9
2017-11-04T05:45:14.809Z,10.9
2017-11-04T05:46:17.234Z,10.9
2017-11-04T05:47:19.652Z,10.9
2017-11-04T05:48:22.075Z,10.8
2017-11-04T05:49:24.506Z,10.9
2017-11-04T05:50:26.918Z,10.8
2017-11-04T05:51:29.351Z,10.8
2017-11-04T05:52:31.764Z,10.8
2017-11-04T05:53:34.184Z,10.8
2017-11-04T05:54:36.967Z,10.8
2017-11-04T05:55:39.388Z,10.8
2017-11-04T05:56:41.806Z,10.8
2017-11-04T05:57:44.595Z,10.8
2017-11-04T05:58:47.357Z,10.8
2017-11-04T05:59:49.789Z,10.8
2017-11-04T06:00:52.581Z,10.8
2017-11-04T06:01:55.011Z,10.8
2017-11-04T06:02:57.435Z,10.8
2017-11-04T06:03:59.853Z,10.8
2017-11-04T06:05:02.268Z,10.8
2017-11-04T06:06:05.070Z,10.8
2017-11-04T06:07:07.494Z,10.8
2017-11-04T06:08:09.914Z,10.7
2017-11-04T06:09:12.339Z,10.7
2017-11-04T06:10:14.758Z,10.7
2017-11-04T06:11:17.177Z,10.7
2017-11-04T06:12:19.598Z,10.7
2017-11-04T06:13:22.014Z,10.7
2017-11-04T06:14:24.434Z,10.7
2017-11-04T06:15:26.868Z,10.7
2017-11-04T06:16:29.293Z,10.7
2017-11-04T06:17:32.076Z,10.7
2017-11-04T06:18:34.492Z,10.7
2017-11-04T06:19:36.912Z,10.7
2017-11-04T06:20:39.331Z,10.7
2017-11-04T06:21:41.749Z,10.6
2017-11-04T06:22:44.159Z,10.6
2017-11-04T06:23:46.592Z,10.6
2017-11-04T06:24:49.025Z,10.6
2017-11-04T06:25:51.543Z,10.6
2017-11-04T06:26:53.972Z,10.6
2017-11-04T06:27:56.401Z,10.6
2017-11-04T06:28:58.823Z,10.6
2017-11-04T06:30:01.237Z,10.6
2017-11-04T06:31:03.673Z,10.6
2017-11-04T06:32:06.092Z,10.6
2017-11-04T06:33:08.512Z,10.6
2017-11-04T06:34:10.930Z,10.6
2017-11-04T06:35:13.712Z,10.6
2017-11-04T06:36:16.135Z,10.6
2017-11-04T06:37:18.569Z,10.6
2017-11-04T06:38:20.985Z,10.6
2017-11-04T06:39:23.417Z,10.5
2017-11-04T06:40:26.547Z,10.5
2017-11-04T06:41:28.987Z,10.5
2017-11-04T06:42:31.399Z,10.5
2017-11-04T06:43:33.827Z,10.5
2017-11-04T06:44:36.242Z,10.5
2017-11-04T06:45:38.661Z,10.5
2017-11-04T06:46:41.075Z,10.6
2017-11-04T06:47:43.507Z,10.6
2017-11-04T06:48:45.918Z,10.6
2017-11-04T06:49:48.351Z,10.6
2017-11-04T06:50:50.763Z,10.6
2017-11-04T06:51:53.185Z,10.6
2017-11-04T06:52:55.608Z,10.6
2017-11-04T06:53:58.396Z,10.6
2017-11-04T06:55:00.820Z,10.6
2017-11-04T06:56:03.256Z,10.6
2017-11-04T06:57:05.682Z,10.6
2017-11-04T06:58:08.102Z,10.6
2017-11-04T06:59:10.523Z,10.6
2017-11-04T07:00:12.936Z,10.6
2017-11-04T07:01:15.712Z,10.6
2017-11-04T07:02:18.133Z,10.6
2017-11-04T07:03:20.576Z,10.5
2017-11-04T07:04:23.334Z,10.5
2017-11-04T07:05:25.767Z,10.6
2017-11-04T07:06:28.183Z,10.6
2017-11-04T07:07:30.606Z,10.6
2017-11-04T07:08:33.029Z,10.6
2017-11-04T07:09:35.457Z,10.6
2017-11-04T07:10:37.870Z,10.6
2017-11-04T07:11:40.299Z,10.6
2017-11-04T07:12:42.714Z,10.6
2017-11-04T07:13:45.158Z,10.6
2017-11-04T07:14:47.577Z,10.6
2017-11-04T07:15:50.014Z,10.6
2017-11-04T07:16:52.785Z,10.6
2017-11-04T07:17:55.212Z,10.6
2017-11-04T07:18:57.636Z,10.6
2017-11-04T07:20:00.060Z,10.6
2017-11-04T07:21:02.840Z,10.6
2017-11-04T07:22:05.267Z,10.6
2017-11-04T07:23:08.045Z,10.6
2017-11-04T07:24:10.473Z,10.7
2017-11-04T07:25:13.248Z,10.7
2017-11-04T07:26:15.670Z,10.6
2017-11-04T07:27:18.090Z,10.7
2017-11-04T07:28:20.512Z,10.7
2017-11-04T07:29:22.924Z,10.7
2017-11-04T07:30:25.348Z,10.7
2017-11-04T07:31:27.978Z,10.7
2017-11-04T07:32:30.403Z,10.7
2017-11-04T07:33:33.189Z,10.7
2017-11-04T07:34:35.956Z,10.7
2017-11-04T07:35:53.395Z,10.7
2017-11-04T07:36:55.761Z,10.7
2017-11-04T07:37:58.126Z,10.7
2017-11-04T07:39:00.508Z,10.7
2017-11-04T07:40:02.890Z,10.7
2017-11-04T07:41:05.598Z,10.8
2017-11-04T07:42:08.322Z,10.8
2017-11-04T07:43:10.687Z,10.8
2017-11-04T07:44:13.073Z,10.8
2017-11-04T07:45:15.443Z,10.8
2017-11-04T07:46:18.158Z,10.8
2017-11-04T07:47:20.533Z,10.9
2017-11-04T07:48:22.914Z,10.9
2017-11-04T07:49:25.653Z,10.9
2017-11-04T07:50:28.370Z,10.9
2017-11-04T07:51:30.743Z,10.9
2017-11-04T07:52:33.123Z,10.9
2017-11-04T07:53:35.856Z,11
2017-11-04T07:54:38.229Z,11
2017-11-04T07:55:40.595Z,11
2017-11-04T07:56:42.966Z,11
2017-11-04T07:57:45.346Z,11
2017-11-04T07:58:47.715Z,11
2017-11-04T07:59:50.090Z,11.1
2017-11-04T08:00:52.467Z,11.1
2017-11-04T08:01:54.843Z,11.1
2017-11-04T08:02:57.198Z,11.2
2017-11-04T08:03:59.588Z,11.2
2017-11-04T08:05:01.948Z,11.3
2017-11-04T08:06:04.322Z,11.3
2017-11-04T08:07:06.691Z,11.3
2017-11-04T08:08:09.064Z,11.4
2017-11-04T08:09:11.432Z,11.4
2017-11-04T08:10:13.814Z,11.4
2017-11-04T08:11:16.181Z,11.4
2017-11-04T08:12:18.558Z,11.5
2017-11-04T08:13:21.281Z,11.5
2017-11-04T08:14:23.656Z,11.5
2017-11-04T08:15:26.374Z,11.5
2017-11-04T08:16:28.756Z,11.5
2017-11-04T08:17:31.151Z,11.5
2017-11-04T08:18:33.577Z,11.6
2017-11-04T08:19:36.450Z,11.6
2017-11-04T08:20:39.735Z,11.5
2017-11-04T08:21:42.184Z,11.6
2017-11-04T08:22:44.644Z,11.6
2017-11-04T08:23:47.147Z,11.6
2017-11-04T08:24:50.276Z,11.6
2017-11-04T08:25:52.854Z,11.6
2017-11-04T08:26:59.988Z,11.6
2017-11-04T08:28:09.838Z,11.7
2017-11-04T08:29:13.077Z,11.7
2017-11-04T08:30:18.891Z,11.7
2017-11-04T08:31:24.834Z,11.8
2017-11-04T08:32:33.791Z,11.8
2017-11-04T08:33:43.950Z,11.8
2017-11-04T08:34:53.512Z,11.8
2017-11-04T08:36:03.642Z,11.9
2017-11-04T08:37:14.658Z,11.9
2017-11-04T08:38:26.423Z,12
2017-11-04T08:39:34.432Z,12
2017-11-04T08:40:44.567Z,12.1
2017-11-04T08:41:55.393Z,12.1
2017-11-04T08:43:05.930Z,12.1
2017-11-04T08:44:16.501Z,12.1
2017-11-04T08:45:29.019Z,12.2
2017-11-04T08:46:39.712Z,12.2
2017-11-04T08:47:51.509Z,12.3
2017-11-04T08:49:02.205Z,12.2
2017-11-04T08:50:14.155Z,12.2
2017-11-04T08:51:24.445Z,12.3
2017-11-04T08:52:33.835Z,12.3
2017-11-04T08:53:44.405Z,12.3
2017-11-04T08:54:54.510Z,12.3
2017-11-04T08:56:05.048Z,12.3
2017-11-04T08:57:16.515Z,12.3
2017-11-04T08:58:26.709Z,12.3
2017-11-04T08:59:34.685Z,12.3
2017-11-04T09:00:45.109Z,12.3
2017-11-04T09:01:54.998Z,12.4
2017-11-04T09:03:06.112Z,12.4
2017-11-04T09:04:15.960Z,12.4
2017-11-04T09:05:25.107Z,12.4
2017-11-04T09:06:35.793Z,12.4
2017-11-04T09:07:47.355Z,12.4
2017-11-04T09:08:59.223Z,12.5
2017-11-04T09:10:10.155Z,12.5
2017-11-04T09:11:20.276Z,12.6
2017-11-04T09:12:31.379Z,12.6
2017-11-04T09:13:41.531Z,12.7
2017-11-04T09:14:51.480Z,12.7
2017-11-04T09:16:03.693Z,12.8
2017-11-04T09:17:14.544Z,12.8
2017-11-04T09:18:24.649Z,12.8
2017-11-04T09:19:35.070Z,12.9
2017-11-04T09:20:46.380Z,12.9
2017-11-04T09:21:56.966Z,12.9
2017-11-04T09:23:07.222Z,13
2017-11-04T09:24:18.522Z,13
2017-11-04T09:25:29.073Z,13.1
2017-11-04T09:26:40.775Z,13.2
2017-11-04T09:27:51.012Z,13.2
2017-11-04T09:29:01.969Z,13.3
2017-11-04T09:30:12.515Z,13.4
2017-11-04T09:31:22.663Z,13.5
2017-11-04T09:33:01.577Z,13.5
2017-11-04T09:34:12.633Z,13.6
2017-11-04T09:35:24.353Z,13.7
2017-11-04T09:36:34.768Z,13.8
2017-11-04T09:37:44.285Z,13.9
2017-11-04T09:38:54.723Z,14
2017-11-04T09:40:04.208Z,14.1
2017-11-04T09:41:14.890Z,14.2
2017-11-04T09:42:24.139Z,14.3
2017-11-04T09:43:35.112Z,14.4
2017-11-04T09:44:44.720Z,14.5
2017-11-04T09:45:54.354Z,14.6
2017-11-04T09:47:05.232Z,14.7
2017-11-04T09:48:13.966Z,14.7
2017-11-04T09:49:24.309Z,14.8
2017-11-04T09:50:34.586Z,14.9
2017-11-04T09:51:44.619Z,15
2017-11-04T09:52:54.864Z,15.1
2017-11-04T09:54:05.344Z,15.1
2017-11-04T09:55:15.307Z,15.2
2017-11-04T09:56:26.297Z,15.2
2017-11-04T09:57:36.954Z,15.2
2017-11-04T09:58:45.545Z,15.3
2017-11-04T09:59:51.307Z,15.3
2017-11-04T10:01:02.214Z,15.3
2017-11-04T10:02:11.832Z,15.3
2017-11-04T10:03:22.208Z,15.4
2017-11-04T10:04:33.379Z,15.4
2017-11-04T10:05:44.365Z,15.5
2017-11-04T10:06:57.279Z,15.5
2017-11-04T10:08:08.730Z,15.5
2017-11-04T10:09:19.683Z,15.6
2017-11-04T10:10:29.352Z,15.6
2017-11-04T10:11:39.764Z,15.7
2017-11-04T10:12:46.127Z,15.8
2017-11-04T10:13:50.021Z,15.9
2017-11-04T10:14:55.034Z,15.9
2017-11-04T10:16:04.191Z,16
2017-11-04T10:17:14.207Z,16.1
2017-11-04T10:18:25.285Z,16.1
2017-11-04T10:19:35.012Z,16.2
2017-11-04T10:20:45.481Z,16.2
2017-11-04T10:21:55.972Z,16.2
2017-11-04T10:23:06.059Z,16.3
2017-11-04T10:24:16.897Z,16.3
2017-11-04T10:25:28.122Z,16.3
2017-11-04T10:26:35.678Z,16.3
2017-11-04T10:27:39.126Z,16.3
2017-11-04T10:28:42.305Z,16.3
2017-11-04T10:29:51.046Z,16.3
2017-11-04T10:31:00.896Z,16.2
2017-11-04T10:32:10.138Z,16.2
2017-11-04T10:33:18.415Z,16.2
2017-11-04T10:34:26.006Z,16.2
2017-11-04T10:35:31.780Z,16.2
2017-11-04T10:36:40.897Z,16.1
2017-11-04T10:37:50.742Z,16.1
2017-11-04T10:39:01.817Z,16.1
2017-11-04T10:40:12.176Z,16.2
2017-11-04T10:41:13.718Z,16.2
2017-11-04T10:42:24.085Z,16.3
2017-11-04T10:43:31.972Z,16.3
2017-11-04T10:44:40.086Z,16.5
2017-11-04T10:45:49.498Z,16.6
2017-11-04T10:46:56.370Z,16.6
2017-11-04T10:48:00.935Z,16.5
2017-11-04T10:49:05.305Z,16.4
2017-11-04T10:50:08.871Z,16.3
2017-11-04T10:51:11.012Z,16.2
2017-11-04T10:52:15.205Z,16.2
2017-11-04T10:53:18.290Z,16.1
2017-11-04T10:54:20.712Z,16
2017-11-04T10:55:22.735Z,15.9
2017-11-04T10:56:25.110Z,15.9
2017-11-04T10:57:27.146Z,15.9
2017-11-04T10:58:29.173Z,15.8
2017-11-04T10:59:31.199Z,15.8
2017-11-04T11:00:33.232Z,15.8
2017-11-04T11:01:35.257Z,15.8
2017-11-04T11:02:37.299Z,15.7
2017-11-04T11:03:39.322Z,15.7
2017-11-04T11:04:41.359Z,15.7
2017-11-04T11:05:43.384Z,15.6
2017-11-04T11:06:45.417Z,15.6
2017-11-04T11:07:47.448Z,15.6
2017-11-04T11:08:49.839Z,15.6
2017-11-04T11:09:51.876Z,15.6
2017-11-04T11:10:53.908Z,15.6
2017-11-04T11:11:55.932Z,15.6
2017-11-04T11:12:57.967Z,15.6
2017-11-04T11:13:59.988Z,15.6
2017-11-04T11:15:02.373Z,15.6
2017-11-04T11:16:04.392Z,15.7
2017-11-04T11:17:06.420Z,15.7
2017-11-04T11:18:08.455Z,15.7
2017-11-04T11:19:10.476Z,15.7
2017-11-04T11:20:12.493Z,15.7
2017-11-04T11:21:14.520Z,15.7
2017-11-04T11:22:16.542Z,15.7
2017-11-04T11:23:18.568Z,15.7
2017-11-04T11:24:20.603Z,15.8
2017-11-04T11:25:22.618Z,15.8
2017-11-04T11:26:24.644Z,15.9
2017-11-04T11:27:26.678Z,16
2017-11-04T11:28:28.697Z,16
2017-11-04T11:29:30.741Z,16.1
2017-11-04T11:30:32.766Z,16.2
2017-11-04T11:31:34.798Z,16.3
2017-11-04T11:32:36.829Z,16.4
2017-11-04T11:33:38.870Z,16.6
2017-11-04T11:34:40.915Z,16.6
2017-11-04T11:35:42.942Z,16.7
2017-11-04T11:36:44.954Z,16.8
2017-11-04T11:37:46.989Z,16.9
2017-11-04T11:38:49.023Z,16.9
2017-11-04T11:39:51.401Z,17
2017-11-04T11:40:53.429Z,17
2017-11-04T11:41:55.457Z,17
2017-11-04T11:42:57.486Z,17
2017-11-04T11:43:59.501Z,16.9
2017-11-04T11:45:01.534Z,16.9
2017-11-04T11:46:03.557Z,16.8
2017-11-04T11:47:05.590Z,16.7
2017-11-04T11:48:08.002Z,16.6
2017-11-04T11:49:10.017Z,16.6
2017-11-04T11:50:12.033Z,16.5
2017-11-04T11:51:14.062Z,16.4
2017-11-04T11:52:16.083Z,16.4
2017-11-04T11:53:18.111Z,16.3
2017-11-04T11:54:20.141Z,16.2
2017-11-04T11:55:22.169Z,16.2
2017-11-04T11:56:24.209Z,16.1
2017-11-04T11:57:26.237Z,16.1
2017-11-04T11:58:28.270Z,16
2017-11-04T11:59:30.298Z,15.9
2017-11-04T12:00:32.323Z,15.9
2017-11-04T12:01:34.358Z,15.9
2017-11-04T12:02:36.397Z,15.8
2017-11-04T12:03:38.424Z,15.8
2017-11-04T12:04:40.456Z,15.7
2017-11-04T12:05:42.835Z,15.7
2017-11-04T12:06:44.866Z,15.7
2017-11-04T12:07:46.907Z,15.6
2017-11-04T12:08:49.261Z,15.6
2017-11-04T12:09:51.304Z,15.5
2017-11-04T12:10:53.317Z,15.5
2017-11-04T12:11:55.360Z,15.5
2017-11-04T12:12:57.754Z,15.5
2017-11-04T12:13:59.777Z,15.4
2017-11-04T12:15:01.810Z,15.5
2017-11-04T12:16:03.832Z,15.5
2017-11-04T12:17:05.866Z,15.4
2017-11-04T12:18:07.890Z,15.5
2017-11-04T12:19:09.928Z,15.5
2017-11-04T12:20:11.950Z,15.5
2017-11-04T12:21:13.980Z,15.5
2017-11-04T12:22:16.005Z,15.6
2017-11-04T12:23:18.043Z,15.5
2017-11-04T12:24:20.078Z,15.6
2017-11-04T12:25:22.100Z,15.5
2017-11-04T12:26:24.125Z,15.6
2017-11-04T12:27:26.152Z,15.6
2017-11-04T12:28:28.177Z,15.5
2017-11-04T12:29:30.221Z,15.5
2017-11-04T12:30:32.249Z,15.5
2017-11-04T12:31:34.283Z,15.5
2017-11-04T12:32:36.300Z,15.4
2017-11-04T12:33:38.333Z,15.4
2017-11-04T12:34:40.366Z,15.4
2017-11-04T12:35:42.391Z,15.4
2017-11-04T12:36:44.418Z,15.4
2017-11-04T12:37:46.443Z,15.4
2017-11-04T12:38:48.476Z,15.4
2017-11-04T12:39:50.504Z,15.4
2017-11-04T12:40:52.518Z,15.3
2017-11-04T12:41:54.551Z,15.3
2017-11-04T12:42:56.573Z,15.2
2017-11-04T12:43:58.592Z,15.2
2017-11-04T12:45:00.621Z,15.1
2017-11-04T12:46:02.652Z,15.1
2017-11-04T12:47:04.681Z,15
2017-11-04T12:48:06.701Z,15
2017-11-04T12:49:08.726Z,15
2017-11-04T12:50:10.768Z,14.9
2017-11-04T12:51:12.785Z,14.9
2017-11-04T12:52:14.816Z,14.9
2017-11-04T12:53:16.843Z,14.8
2017-11-04T12:54:18.875Z,14.8
2017-11-04T12:55:20.889Z,14.8
2017-11-04T12:56:22.924Z,14.7
2017-11-04T12:57:24.961Z,14.7
2017-11-04T12:58:26.980Z,14.7
2017-11-04T12:59:29.010Z,14.7
2017-11-04T13:00:31.028Z,14.6
2017-11-04T13:01:33.051Z,14.6
2017-11-04T13:02:35.077Z,14.6
2017-11-04T13:03:37.105Z,14.6
2017-11-04T13:04:39.156Z,14.6
2017-11-04T13:05:41.176Z,14.6
2017-11-04T13:06:43.197Z,14.6
2017-11-04T13:07:45.218Z,14.6
2017-11-04T13:08:47.613Z,14.6
2017-11-04T13:09:49.641Z,14.5
2017-11-04T13:10:51.661Z,14.5
2017-11-04T13:11:53.683Z,14.6
2017-11-04T13:12:55.710Z,14.5
2017-11-04T13:13:57.747Z,14.6
2017-11-04T13:15:00.122Z,14.6
2017-11-04T13:16:02.148Z,14.6
2017-11-04T13:17:04.173Z,14.6
2017-11-04T13:18:06.213Z,14.5
2017-11-04T13:19:08.226Z,14.5
2017-11-04T13:20:10.251Z,14.5
2017-11-04T13:21:12.618Z,14.5
2017-11-04T13:22:14.654Z,14.5
2017-11-04T13:23:16.667Z,14.5
2017-11-04T13:24:18.697Z,14.5
2017-11-04T13:25:20.716Z,14.5
2017-11-04T13:26:22.744Z,14.6
2017-11-04T13:27:24.768Z,14.6
2017-11-04T13:28:26.794Z,14.6
2017-11-04T13:29:28.813Z,14.6
2017-11-04T13:30:30.857Z,14.6
2017-11-04T13:31:33.217Z,14.6
2017-11-04T13:32:35.272Z,14.6
2017-11-04T13:33:37.301Z,14.6
2017-11-04T13:34:39.686Z,14.6
2017-11-04T13:35:41.711Z,14.6
2017-11-04T13:36:43.729Z,14.6
2017-11-04T13:37:45.755Z,14.7
2017-11-04T13:38:47.782Z,14.7
2017-11-04T13:39:49.795Z,14.7
2017-11-04T13:40:51.836Z,14.7
2017-11-04T13:41:53.852Z,14.7
2017-11-04T13:42:55.883Z,14.7
2017-11-04T13:43:58.266Z,14.7
2017-11-04T13:45:00.296Z,14.7
2017-11-04T13:46:02.680Z,14.8
2017-11-04T13:47:04.706Z,14.8
2017-11-04T13:48:06.730Z,14.8
2017-11-04T13:49:08.765Z,14.8
2017-11-04T13:50:10.791Z,14.8
2017-11-04T13:51:13.178Z,14.8
2017-11-04T13:52:15.198Z,14.9
2017-11-04T13:53:17.221Z,14.8
2017-11-04T13:54:19.260Z,14.8
2017-11-04T13:55:21.284Z,14.9
2017-11-04T13:56:23.303Z,14.8
2017-11-04T13:57:25.332Z,14.8
2017-11-04T13:58:27.360Z,14.8
2017-11-04T13:59:29.391Z,14.7
2017-11-04T14:00:31.413Z,14.7
2017-11-04T14:01:33.460Z,14.6
2017-11-04T14:02:35.510Z,14.6
2017-11-04T14:03:37.517Z,14.6
2017-11-04T14:04:39.546Z,14.6
2017-11-04T14:05:41.578Z,14.6
2017-11-04T14:06:43.603Z,14.6
2017-11-04T14:07:45.630Z,14.6
2017-11-04T14:08:48.013Z,14.6